Time;durP1;ratioP1;P1;durP2;ratioP2;P2;SDS_P1;SDS_P2;PMS_P1;PMS_P2;Temp;Humidity;BMP_temperature;BMP_pressure;BME280_temperature;BME280_humidity;BME280_pressure;Samples;Min_cycle;Max_cycle;Signal;HPM_P1;HPM_P2
2021/11/29 00:02:05;;;;;;;2.60;1.55;;;21.70;49.30;;;;;;5021047;28;20152;-58
2021/11/29 00:04:30;;;;;;;2.60;1.50;;;21.70;49.40;;;;;;5020767;28;20481;-58
2021/11/29 00:06:56;;;;;;;3.05;1.50;;;21.70;49.40;;;;;;5022907;28;20038;-61
2021/11/29 00:09:21;;;;;;;2.50;1.33;;;21.70;49.40;;;;;;5019922;28;20040;-59
2021/11/29 00:11:47;;;;;;;2.67;1.70;;;21.70;49.40;;;;;;5020808;28;20478;-59
2021/11/29 00:14:13;;;;;;;2.75;1.55;;;21.70;49.40;;;;;;5024115;28;20084;-55
2021/11/29 00:16:39;;;;;;;2.30;1.30;;;21.70;49.40;;;;;;5021646;28;20526;-56
2021/11/29 00:19:05;;;;;;;2.35;1.33;;;21.60;49.40;;;;;;5023985;28;20021;-58
2021/11/29 00:21:32;;;;;;;2.20;1.40;;;21.60;49.40;;;;;;5018270;28;20800;-59
2021/11/29 00:23:58;;;;;;;2.70;1.50;;;21.60;49.40;;;;;;5021223;28;20056;-59
2021/11/29 00:26:23;;;;;;;2.50;1.40;;;21.60;49.50;;;;;;5021890;28;20070;-58
2021/11/29 00:45:31;;;;;;;3.22;1.60;;;21.50;49.50;;;;;;5022879;28;20549;-59
2021/11/29 00:47:57;;;;;;;2.85;1.50;;;21.40;49.50;;;;;;5016676;28;20036;-59
2021/11/29 00:50:23;;;;;;;2.88;1.50;;;21.40;49.50;;;;;;5022635;28;20021;-59
2021/11/29 00:52:49;;;;;;;2.10;1.40;;;21.40;49.60;;;;;;5024969;28;20107;-60
2021/11/29 00:55:16;;;;;;;2.63;1.55;;;21.40;49.60;;;;;;5017453;28;20029;-58
2021/11/29 00:57:42;;;;;;;2.95;1.85;;;21.40;49.60;;;;;;5020528;28;20025;-58
2021/11/29 01:00:19;;;;;;;3.08;1.40;;;21.40;49.60;;;;;;5021262;28;20037;-60
2021/11/29 01:02:45;;;;;;;3.17;1.35;;;21.40;49.60;;;;;;5021326;28;20045;-60
2021/11/29 01:05:11;;;;;;;2.85;1.52;;;21.30;49.60;;;;;;5019042;28;20026;-61
2021/11/29 01:07:37;;;;;;;2.08;1.40;;;21.30;49.70;;;;;;5021540;28;20581;-58
2021/11/29 01:10:04;;;;;;;2.58;1.48;;;21.30;49.70;;;;;;5021929;28;20485;-56
2021/11/29 01:12:30;;;;;;;2.75;1.63;;;21.30;49.70;;;;;;5022974;28;20036;-53
2021/11/29 01:14:56;;;;;;;2.40;1.40;;;21.30;49.70;;;;;;5021005;28;20038;-59
2021/11/29 01:17:22;;;;;;;2.30;1.35;;;21.30;49.80;;;;;;5020928;28;20026;-61
2021/11/29 01:19:47;;;;;;;2.45;1.13;;;21.30;49.80;;;;;;5020702;28;20038;-59
2021/11/29 01:22:13;;;;;;;3.83;2.13;;;21.30;49.80;;;;;;5024435;28;20107;-61
2021/11/29 01:24:39;;;;;;;2.25;1.30;;;21.20;49.80;;;;;;5021709;28;20917;-57
2021/11/29 01:27:04;;;;;;;2.00;1.30;;;21.20;49.80;;;;;;5026352;28;20029;-54
2021/11/29 01:29:30;;;;;;;3.30;1.80;;;21.20;49.80;;;;;;5023671;28;20132;-58
2021/11/29 01:31:56;;;;;;;2.25;1.40;;;21.20;49.80;;;;;;5027090;28;20038;-59
2021/11/29 01:34:21;;;;;;;2.38;1.60;;;21.20;49.80;;;;;;5022584;28;20056;-55
2021/11/29 01:36:47;;;;;;;2.15;1.40;;;21.20;49.80;;;;;;5027312;28;20035;-59
2021/11/29 01:39:13;;;;;;;2.10;1.23;;;21.20;49.80;;;;;;5023448;28;20021;-58
2021/11/29 01:41:42;;;;;;;2.22;1.30;;;21.20;49.80;;;;;;5021202;28;20586;-56
2021/11/29 01:44:08;;;;;;;2.53;1.63;;;21.10;49.80;;;;;;5024183;28;20083;-58
2021/11/29 01:46:34;;;;;;;2.03;1.10;;;21.10;49.80;;;;;;5026579;28;20025;-59
2021/11/29 01:48:59;;;;;;;2.15;1.30;;;21.10;49.80;;;;;;5023483;28;20026;-56
2021/11/29 01:51:25;;;;;;;1.88;1.27;;;21.10;49.80;;;;;;5025815;28;20108;-53
2021/11/29 01:53:51;;;;;;;3.80;1.60;;;21.10;49.80;;;;;;5024286;28;20895;-59
2021/11/29 01:56:18;;;;;;;2.13;1.25;;;21.10;49.90;;;;;;5023021;28;20069;-58
2021/11/29 01:58:43;;;;;;;3.45;1.35;;;21.00;49.80;;;;;;5025272;28;20041;-57
2021/11/29 02:01:19;;;;;;;2.20;1.40;;;21.10;49.90;;;;;;5024356;28;20056;-60
2021/11/29 02:03:47;;;;;;;1.92;1.30;;;21.00;49.90;;;;;;5020288;28;20107;-60
2021/11/29 02:06:14;;;;;;;1.95;1.30;;;21.00;49.80;;;;;;5023466;28;20591;-57
2021/11/29 02:08:39;;;;;;;2.08;1.30;;;21.00;49.90;;;;;;5021243;28;20029;-56
2021/11/29 02:11:06;;;;;;;1.75;1.20;;;21.00;49.90;;;;;;5025156;28;20024;-61
2021/11/29 02:13:31;;;;;;;2.53;1.40;;;21.00;49.90;;;;;;5025006;28;20029;-58
2021/11/29 02:15:57;;;;;;;1.73;1.10;;;21.00;49.90;;;;;;5023955;28;20056;-57
2021/11/29 02:18:34;;;;;;;2.35;1.42;;;21.00;49.90;;;;;;5024840;28;20030;-58
2021/11/29 02:20:59;;;;;;;2.08;1.40;;;21.00;50.00;;;;;;5024275;28;20033;-58
2021/11/29 02:23:25;;;;;;;1.60;1.10;;;21.00;50.00;;;;;;5025788;28;20380;-61
2021/11/29 02:25:51;;;;;;;2.28;1.30;;;20.90;50.00;;;;;;5020748;28;20362;-58
2021/11/29 02:28:20;;;;;;;2.20;1.30;;;20.90;50.00;;;;;;5024335;28;20053;-55
2021/11/29 02:30:46;;;;;;;2.35;1.20;;;20.90;50.00;;;;;;5021931;28;20398;-61
2021/11/29 02:33:12;;;;;;;2.05;1.30;;;20.90;50.00;;;;;;5021124;28;20025;-59
2021/11/29 02:35:38;;;;;;;2.00;1.30;;;20.90;50.00;;;;;;5023569;28;20033;-56
2021/11/29 02:38:05;;;;;;;2.38;1.23;;;20.90;50.00;;;;;;5024469;28;20091;-58
2021/11/29 02:40:33;;;;;;;2.45;1.40;;;20.90;50.10;;;;;;5019689;28;20029;-56
2021/11/29 02:42:58;;;;;;;1.45;1.02;;;20.90;50.00;;;;;;5024713;28;20037;-58
2021/11/29 02:45:25;;;;;;;1.80;1.20;;;20.90;50.00;;;;;;5023701;28;20075;-61
2021/11/29 02:47:51;;;;;;;2.17;1.30;;;20.80;50.00;;;;;;5025022;28;20092;-58
2021/11/29 02:50:16;;;;;;;2.17;1.10;;;20.80;50.00;;;;;;5022905;28;20121;-59
2021/11/29 02:52:42;;;;;;;1.83;1.23;;;20.80;50.00;;;;;;5023016;28;20120;-57
2021/11/29 02:55:09;;;;;;;1.75;1.20;;;20.90;50.00;;;;;;5020480;28;20025;-59
2021/11/29 02:57:34;;;;;;;1.80;1.20;;;20.80;50.00;;;;;;5021826;28;20140;-61
2021/11/29 03:00:00;;;;;;;2.20;1.33;;;20.80;50.00;;;;;;5024626;28;20439;-57
2021/11/29 03:02:31;;;;;;;1.92;1.10;;;20.80;50.00;;;;;;5024960;28;20084;-57
2021/11/29 03:04:57;;;;;;;2.33;1.30;;;20.80;50.10;;;;;;5022638;28;20124;-56
2021/11/29 03:07:23;;;;;;;1.77;1.20;;;20.80;50.10;;;;;;5025686;28;20104;-58
2021/11/29 03:09:48;;;;;;;1.95;1.25;;;20.80;50.10;;;;;;5023094;28;20057;-58
2021/11/29 03:12:14;;;;;;;2.13;1.20;;;20.80;50.10;;;;;;5023100;28;20052;-60
2021/11/29 03:14:40;;;;;;;2.45;1.35;;;20.80;50.10;;;;;;5023050;28;20028;-56
2021/11/29 03:17:06;;;;;;;1.35;1.00;;;20.70;50.10;;;;;;5024948;28;20025;-56
2021/11/29 03:19:38;;;;;;;1.98;1.23;;;20.70;50.10;;;;;;5022133;28;20100;-55
2021/11/29 03:22:06;;;;;;;1.50;1.10;;;20.70;50.10;;;;;;5023195;28;20072;-58
2021/11/29 03:24:32;;;;;;;2.10;1.27;;;20.70;50.10;;;;;;5020687;28;20033;-61
2021/11/29 03:26:57;;;;;;;2.22;1.20;;;20.70;50.10;;;;;;5023987;28;20037;-61
2021/11/29 03:29:24;;;;;;;2.30;1.27;;;20.70;50.20;;;;;;5018887;28;20541;-57
2021/11/29 03:31:52;;;;;;;2.05;1.17;;;20.70;50.20;;;;;;5024021;28;20044;-55
2021/11/29 03:34:19;;;;;;;2.20;1.23;;;20.70;50.20;;;;;;5020697;28;20033;-59
2021/11/29 03:36:46;;;;;;;1.95;1.10;;;20.70;50.20;;;;;;5022956;28;20091;-56
2021/11/29 03:39:15;;;;;;;2.10;1.20;;;20.70;50.20;;;;;;5019721;28;20470;-55
2021/11/29 03:41:42;;;;;;;1.60;1.15;;;20.70;50.20;;;;;;5021224;28;20704;-58
2021/11/29 03:44:08;;;;;;;1.63;1.20;;;20.70;50.20;;;;;;5024291;28;20083;-59
2021/11/29 03:46:34;;;;;;;2.75;1.20;;;20.60;50.20;;;;;;5021623;28;20489;-60
2021/11/29 03:49:00;;;;;;;1.60;1.10;;;20.60;50.20;;;;;;5017212;28;20030;-61
2021/11/29 03:51:26;;;;;;;1.63;1.08;;;20.60;50.20;;;;;;5022471;28;20055;-58
2021/11/29 03:53:51;;;;;;;1.42;1.10;;;20.60;50.20;;;;;;5021681;28;20049;-55
2021/11/29 03:56:18;;;;;;;1.73;1.10;;;20.60;50.20;;;;;;5020927;28;20104;-59
2021/11/29 03:58:44;;;;;;;1.58;1.05;;;20.60;50.20;;;;;;5020698;28;20364;-58
2021/11/29 04:01:09;;;;;;;2.25;1.30;;;20.60;50.20;;;;;;5023343;28;20037;-59
2021/11/29 04:03:35;;;;;;;1.75;1.00;;;20.60;50.30;;;;;;5022901;28;20033;-58
2021/11/29 04:06:01;;;;;;;1.58;1.02;;;20.60;50.30;;;;;;5024511;28;20025;-53
2021/11/29 04:08:26;;;;;;;1.42;1.00;;;20.60;50.30;;;;;;5022301;28;20013;-57
2021/11/29 04:10:53;;;;;;;1.90;1.25;;;20.60;50.80;;;;;;5021506;28;20040;-61
2021/11/29 04:13:19;;;;;;;1.77;1.10;;;20.60;50.30;;;;;;5017712;28;20026;-61
2021/11/29 04:15:44;;;;;;;1.60;1.00;;;20.50;50.30;;;;;;5024211;28;20417;-59
2021/11/29 04:18:10;;;;;;;1.80;1.23;;;20.50;50.30;;;;;;5021684;28;20039;-57
2021/11/29 04:20:36;;;;;;;1.27;0.90;;;20.50;50.40;;;;;;5023783;28;20032;-57
2021/11/29 04:23:03;;;;;;;1.58;1.10;;;20.50;50.40;;;;;;5023787;28;20513;-57
2021/11/29 04:25:36;;;;;;;1.80;1.15;;;20.50;50.40;;;;;;5018548;28;20033;-58
2021/11/29 04:28:02;;;;;;;1.95;1.08;;;20.50;50.40;;;;;;5016630;28;20040;-57
2021/11/29 04:30:28;;;;;;;1.77;1.20;;;20.50;50.40;;;;;;5022586;28;20025;-53
2021/11/29 04:32:57;;;;;;;1.70;1.20;;;20.50;50.40;;;;;;5019020;28;20030;-56
2021/11/29 04:35:25;;;;;;;1.60;1.02;;;20.50;50.40;;;;;;5018038;28;20105;-56
2021/11/29 04:37:50;;;;;;;2.08;1.20;;;20.50;50.50;;;;;;5015584;28;20177;-57
2021/11/29 04:40:16;;;;;;;1.52;1.00;;;20.50;50.50;;;;;;5017455;28;20098;-58
2021/11/29 04:42:42;;;;;;;1.50;1.00;;;20.50;50.50;;;;;;5021235;28;20088;-61
2021/11/29 04:45:08;;;;;;;1.40;0.93;;;20.50;50.60;;;;;;5021263;28;20057;-57
2021/11/29 04:47:34;;;;;;;1.67;1.05;;;20.50;50.50;;;;;;5019235;28;20105;-60
2021/11/29 04:50:00;;;;;;;1.23;0.90;;;20.50;50.50;;;;;;5022815;28;20136;-61
2021/11/29 04:52:26;;;;;;;1.92;1.08;;;20.50;50.60;;;;;;5019916;28;20033;-57
2021/11/29 04:54:52;;;;;;;1.60;1.00;;;20.40;50.50;;;;;;5016470;28;20025;-57
2021/11/29 04:57:18;;;;;;;1.35;1.00;;;20.40;50.50;;;;;;5019888;28;20032;-56
2021/11/29 04:59:44;;;;;;;1.25;0.90;;;20.40;50.50;;;;;;5023539;28;20600;-60
2021/11/29 05:02:09;;;;;;;1.40;0.90;;;20.50;50.60;;;;;;5027483;28;20128;-56
2021/11/29 05:04:35;;;;;;;1.45;1.00;;;20.40;50.50;;;;;;5027034;28;20033;-60
2021/11/29 05:07:01;;;;;;;2.03;1.42;;;20.50;50.60;;;;;;5028207;28;20037;-60
2021/11/29 05:09:26;;;;;;;1.77;1.00;;;20.40;51.10;;;;;;5024622;28;20065;-57
2021/11/29 05:11:52;;;;;;;1.40;0.98;;;20.40;50.60;;;;;;5027049;28;20185;-58
2021/11/29 05:14:18;;;;;;;1.52;0.98;;;20.40;50.60;;;;;;5025772;28;20114;-59
2021/11/29 05:16:44;;;;;;;1.27;0.98;;;20.40;50.60;;;;;;5024115;28;20026;-52
2021/11/29 05:19:10;;;;;;;0.80;0.77;;;20.40;50.60;;;;;;5025143;28;20055;-58
2021/11/29 05:21:37;;;;;;;1.13;0.93;;;20.40;50.60;;;;;;5022427;28;20850;-58
2021/11/29 05:24:03;;;;;;;1.48;0.95;;;20.40;50.70;;;;;;5025754;28;20041;-60
2021/11/29 05:26:28;;;;;;;1.20;0.90;;;20.40;50.70;;;;;;5024813;28;20037;-59
2021/11/29 05:28:57;;;;;;;2.25;1.00;;;20.30;50.60;;;;;;5025018;28;20108;-58
2021/11/29 05:31:24;;;;;;;1.23;0.98;;;20.40;50.70;;;;;;5023599;28;20050;-55
2021/11/29 05:33:50;;;;;;;1.90;1.10;;;20.40;50.70;;;;;;5024494;28;20591;-59
2021/11/29 05:36:16;;;;;;;1.55;0.95;;;20.40;50.70;;;;;;5023757;28;20041;-60
2021/11/29 05:38:42;;;;;;;2.00;1.10;;;20.40;50.70;;;;;;5025628;28;20125;-59
2021/11/29 05:41:08;;;;;;;1.52;1.10;;;20.30;50.70;;;;;;5021380;28;20109;-56
2021/11/29 05:43:34;;;;;;;1.27;0.88;;;20.40;50.70;;;;;;5026048;28;20104;-56
2021/11/29 05:46:00;;;;;;;1.23;0.90;;;20.30;50.70;;;;;;5021828;28;20033;-53
2021/11/29 05:48:29;;;;;;;1.10;0.80;;;20.30;50.70;;;;;;5024779;28;20030;-60
2021/11/29 05:50:55;;;;;;;1.27;0.98;;;20.40;50.80;;;;;;5020569;28;20025;-60
2021/11/29 05:53:21;;;;;;;1.65;0.90;;;20.30;50.80;;;;;;5021288;28;20034;-54
2021/11/29 05:55:46;;;;;;;2.10;1.00;;;20.40;50.90;;;;;;5022930;28;20041;-59
2021/11/29 05:58:12;;;;;;;1.52;1.00;;;20.30;50.80;;;;;;5025210;28;20117;-56
2021/11/29 06:00:39;;;;;;;1.90;1.00;;;20.30;50.80;;;;;;5022983;28;20411;-57
2021/11/29 06:03:05;;;;;;;1.63;0.90;;;20.30;50.90;;;;;;5023433;28;20026;-57
2021/11/29 06:05:31;;;;;;;1.20;0.98;;;20.30;50.90;;;;;;5022938;28;20393;-56
2021/11/29 06:07:56;;;;;;;1.13;0.90;;;20.30;50.90;;;;;;5022722;28;20037;-57
2021/11/29 06:10:22;;;;;;;1.42;0.90;;;20.30;51.00;;;;;;5023200;28;20143;-57
2021/11/29 06:12:48;;;;;;;1.23;0.80;;;20.30;51.00;;;;;;5028215;28;20508;-57
2021/11/29 06:15:15;;;;;;;1.20;0.90;;;20.30;51.00;;;;;;5025107;28;20025;-58
2021/11/29 06:17:41;;;;;;;3.25;1.25;;;20.30;51.10;;;;;;5025204;28;20033;-53
2021/11/29 06:20:08;;;;;;;1.58;0.98;;;20.30;51.10;;;;;;5023969;28;20036;-57
2021/11/29 06:22:34;;;;;;;1.23;0.95;;;20.30;51.10;;;;;;5025797;28;20026;-55
2021/11/29 06:25:00;;;;;;;1.75;1.10;;;20.30;51.10;;;;;;5023179;28;20507;-54
2021/11/29 06:27:25;;;;;;;2.00;1.00;;;20.30;51.10;;;;;;5025907;28;20151;-57
2021/11/29 06:29:51;;;;;;;1.60;1.00;;;20.30;51.10;;;;;;5020789;28;20029;-57
2021/11/29 06:32:17;;;;;;;1.25;0.80;;;20.30;51.20;;;;;;5022959;28;20038;-57
2021/11/29 06:34:43;;;;;;;1.08;0.88;;;20.20;51.10;;;;;;5020023;28;20067;-57
2021/11/29 06:37:10;;;;;;;1.85;1.00;;;20.30;51.10;;;;;;5022496;28;20124;-57
2021/11/29 06:39:37;;;;;;;1.80;1.00;;;20.40;52.30;;;;;;5022268;28;20029;-56
2021/11/29 06:42:05;;;;;;;1.40;0.90;;;20.50;52.40;;;;;;5025749;28;20124;-56
2021/11/29 06:44:31;;;;;;;2.05;1.10;;;20.90;52.20;;;;;;5024601;28;20044;-55
2021/11/29 06:46:57;;;;;;;2.00;0.90;;;21.10;52.10;;;;;;5023343;28;20098;-56
2021/11/29 06:49:22;;;;;;;1.98;1.00;;;21.30;51.80;;;;;;5020329;28;20037;-56
2021/11/29 06:51:48;;;;;;;2.38;1.20;;;21.50;51.70;;;;;;5023744;28;20119;-54
2021/11/29 06:54:15;;;;;;;1.55;1.00;;;21.60;51.60;;;;;;5022862;28;20025;-57
2021/11/29 06:56:41;;;;;;;1.67;1.00;;;21.70;51.50;;;;;;5023242;28;20095;-57
2021/11/29 06:59:06;;;;;;;1.73;0.90;;;21.90;51.40;;;;;;5022537;28;20034;-57
2021/11/29 07:01:32;;;;;;;1.63;1.00;;;22.10;51.30;;;;;;5025645;28;20702;-57
2021/11/29 07:03:59;;;;;;;1.38;0.80;;;22.10;51.10;;;;;;5025250;28;20029;-55
2021/11/29 07:06:25;;;;;;;1.15;0.90;;;22.30;51.10;;;;;;5025787;28;20632;-54
2021/11/29 07:08:51;;;;;;;1.45;0.93;;;22.40;51.10;;;;;;5023629;28;20104;-58
2021/11/29 07:11:17;;;;;;;1.10;0.80;;;22.60;51.00;;;;;;5025361;28;20108;-58
2021/11/29 07:13:43;;;;;;;2.53;0.80;;;22.70;50.60;;;;;;5021599;28;20099;-59
2021/11/29 07:16:09;;;;;;;1.58;0.80;;;22.90;50.40;;;;;;5022043;28;20025;-57
2021/11/29 07:18:35;;;;;;;0.70;0.55;;;23.10;50.30;;;;;;5025521;28;20045;-57
2021/11/29 07:21:00;;;;;;;0.60;0.60;;;23.20;50.00;;;;;;5022573;28;20091;-57
2021/11/29 07:23:26;;;;;;;0.70;0.60;;;23.10;50.10;;;;;;5023060;28;20056;-56
2021/11/29 07:25:52;;;;;;;0.70;0.60;;;22.90;50.30;;;;;;5020800;28;20111;-57
2021/11/29 07:28:18;;;;;;;0.73;0.65;;;22.90;50.60;;;;;;5024063;28;20073;-54
2021/11/29 07:30:44;;;;;;;0.93;0.70;;;22.80;50.70;;;;;;5022829;28;20610;-57
2021/11/29 07:33:09;;;;;;;1.73;0.73;;;22.80;51.20;;;;;;5023553;28;20649;-58
2021/11/29 07:35:35;;;;;;;1.17;0.70;;;23.10;51.50;;;;;;5024502;28;20060;-54
2021/11/29 07:38:02;;;;;;;0.60;0.60;;;23.40;50.90;;;;;;5017497;28;20025;-57
2021/11/29 07:40:29;;;;;;;0.68;0.50;;;23.40;50.30;;;;;;5015829;28;20544;-57
2021/11/29 07:43:02;;;;;;;0.88;0.60;;;23.30;50.30;;;;;;5019722;28;20095;-56
2021/11/29 07:45:28;;;;;;;0.63;0.55;;;23.30;50.40;;;;;;5023232;28;20045;-58
2021/11/29 07:47:54;;;;;;;1.27;0.80;;;23.20;50.50;;;;;;5018222;28;20029;-57
2021/11/29 07:50:20;;;;;;;0.77;0.65;;;23.20;50.70;;;;;;5023274;28;20028;-57
2021/11/29 07:52:47;;;;;;;0.93;0.60;;;23.40;51.10;;;;;;5024902;28;20030;-57
2021/11/29 07:55:17;;;;;;;0.73;0.55;;;23.50;50.40;;;;;;5021876;28;20036;-54
2021/11/29 07:57:44;;;;;;;0.90;0.65;;;23.50;50.30;;;;;;5022528;28;20045;-54
2021/11/29 08:00:17;;;;;;;0.80;0.60;;;23.50;50.50;;;;;;5022847;28;20056;-57
2021/11/29 08:02:44;;;;;;;0.93;0.50;;;23.40;50.40;;;;;;5005066;28;20443;-57
2021/11/29 08:05:09;;;;;;;0.90;0.73;;;23.40;50.60;;;;;;5001294;28;20398;-58
2021/11/29 08:07:35;;;;;;;1.13;0.60;;;23.50;51.00;;;;;;5006351;28;20030;-56
2021/11/29 08:10:01;;;;;;;0.65;0.52;;;23.70;50.50;;;;;;5001247;28;20312;-58
2021/11/29 08:12:27;;;;;;;0.90;0.60;;;23.70;50.20;;;;;;5004585;28;20033;-58
2021/11/29 08:14:56;;;;;;;2.55;0.60;;;23.60;50.20;;;;;;5003373;28;20029;-57
2021/11/29 08:17:22;;;;;;;1.00;0.70;;;23.60;50.50;;;;;;5001480;28;20101;-59
2021/11/29 08:19:47;;;;;;;2.05;0.95;;;23.60;50.60;;;;;;5003245;28;20129;-58
2021/11/29 08:22:14;;;;;;;1.15;0.85;;;23.60;47.30;;;;;;5005091;28;20410;-58
2021/11/29 08:24:40;;;;;;;2.15;0.90;;;23.50;47.30;;;;;;4995901;28;20057;-57
2021/11/29 08:27:06;;;;;;;1.10;0.80;;;23.40;47.20;;;;;;5002644;28;20041;-58
2021/11/29 08:29:32;;;;;;;1.60;0.90;;;23.40;47.50;;;;;;5003191;28;20034;-53
2021/11/29 08:31:59;;;;;;;0.98;0.70;;;23.40;47.80;;;;;;5017339;28;20738;-55
2021/11/29 08:34:25;;;;;;;1.10;0.88;;;23.40;48.50;;;;;;5021039;28;20041;-57
2021/11/29 08:36:51;;;;;;;0.88;0.63;;;23.40;48.20;;;;;;5022834;28;20029;-58
2021/11/29 08:39:17;;;;;;;2.58;0.80;;;23.40;48.80;;;;;;5021062;28;20079;-54
2021/11/29 08:41:43;;;;;;;1.10;0.73;;;23.40;48.70;;;;;;5018918;28;20029;-55
2021/11/29 08:44:09;;;;;;;1.60;0.73;;;23.40;48.90;;;;;;5023418;28;20048;-58
2021/11/29 08:46:35;;;;;;;1.30;0.80;;;23.40;49.10;;;;;;5021967;28;20121;-57
2021/11/29 08:49:01;;;;;;;1.05;0.73;;;23.50;49.20;;;;;;5021572;28;20042;-58
2021/11/29 08:51:27;;;;;;;0.88;0.70;;;23.50;49.50;;;;;;5023368;28;20029;-58
2021/11/29 08:53:53;;;;;;;0.63;0.60;;;23.50;49.30;;;;;;5022948;28;20369;-57
2021/11/29 08:56:19;;;;;;;0.63;0.63;;;23.50;49.30;;;;;;5017805;28;20316;-57
2021/11/29 08:58:45;;;;;;;0.98;0.60;;;23.50;49.30;;;;;;5023011;28;20040;-57
2021/11/29 09:01:12;;;;;;;1.55;0.60;;;23.50;49.50;;;;;;5020771;28;20091;-57
2021/11/29 09:03:38;;;;;;;0.75;0.60;;;23.50;49.50;;;;;;5020686;28;20025;-56
2021/11/29 09:06:04;;;;;;;0.90;0.60;;;23.50;49.50;;;;;;5023726;28;20030;-58
2021/11/29 09:08:32;;;;;;;1.17;0.80;;;23.50;49.60;;;;;;5021970;28;20026;-57
2021/11/29 09:10:59;;;;;;;1.17;0.70;;;23.50;49.60;;;;;;5021393;28;20064;-57
2021/11/29 09:13:30;;;;;;;0.93;0.60;;;23.50;49.70;;;;;;5021666;28;20578;-57
2021/11/29 09:15:55;;;;;;;0.95;0.77;;;23.50;49.80;;;;;;5020854;28;20501;-56
2021/11/29 09:18:21;;;;;;;1.10;0.75;;;23.50;49.80;;;;;;5022332;28;20068;-54
2021/11/29 09:20:47;;;;;;;1.20;0.65;;;23.50;49.70;;;;;;5022133;28;20041;-58
2021/11/29 09:23:14;;;;;;;0.82;0.63;;;23.60;50.00;;;;;;5015461;28;20048;-59
2021/11/29 09:25:43;;;;;;;1.00;0.70;;;23.60;50.40;;;;;;5019403;28;20102;-57
2021/11/29 09:28:10;;;;;;;1.17;0.77;;;23.60;50.20;;;;;;5023417;28;20488;-57
2021/11/29 09:30:36;;;;;;;0.98;0.57;;;23.60;50.50;;;;;;5023384;28;20045;-57
2021/11/29 09:33:03;;;;;;;0.60;0.60;;;23.60;50.70;;;;;;5022177;28;20057;-57
2021/11/29 09:35:28;;;;;;;1.10;0.80;;;23.60;50.40;;;;;;5022753;28;20052;-57
2021/11/29 09:37:54;;;;;;;3.63;0.70;;;23.70;50.50;;;;;;5022980;28;20029;-58
2021/11/29 09:40:23;;;;;;;0.75;0.60;;;23.70;50.80;;;;;;5015623;28;20389;-58
2021/11/29 09:42:49;;;;;;;;;;;23.70;51.00;;;;;;5021825;28;20041;-56
2021/11/29 09:45:16;;;;;;;2.10;0.60;;;23.70;51.50;;;;;;5024248;28;19920;-57
2021/11/29 09:47:42;;;;;;;0.82;0.70;;;23.70;51.50;;;;;;5026318;28;20047;-56
2021/11/29 09:50:09;;;;;;;1.08;0.80;;;23.70;48.80;;;;;;5027142;28;20037;-58
2021/11/29 09:52:35;;;;;;;0.85;0.70;;;23.70;48.50;;;;;;5022606;28;20087;-58
2021/11/29 09:55:00;;;;;;;0.90;0.65;;;23.60;48.30;;;;;;5024598;28;20029;-59
2021/11/29 09:57:26;;;;;;;1.05;0.70;;;23.60;48.40;;;;;;5021957;28;20029;-56
2021/11/29 09:59:52;;;;;;;1.27;0.80;;;23.60;48.60;;;;;;5024178;28;20446;-57
2021/11/29 10:02:18;;;;;;;0.70;0.70;;;23.60;49.00;;;;;;5025422;28;20037;-60
2021/11/29 10:04:48;;;;;;;0.82;0.60;;;23.60;49.10;;;;;;5023551;28;20025;-60
2021/11/29 10:07:37;;;;;;;1.10;0.80;;;23.60;49.50;;;;;;5026720;28;20087;-56
2021/11/29 10:10:24;;;;;;;0.93;0.65;;;23.70;50.10;;;;;;5021144;28;20178;-59
2021/11/29 10:12:52;;;;;;;0.85;0.70;;;23.70;50.20;;;;;;5025667;28;20057;-60
2021/11/29 10:15:22;;;;;;;3.53;0.80;;;23.80;50.30;;;;;;5022950;28;20518;-55
2021/11/29 10:18:00;;;;;;;1.63;0.90;;;23.80;49.40;;;;;;5026085;28;20106;-59
2021/11/29 10:20:30;;;;;;;1.63;0.90;;;23.70;46.80;;;;;;5023460;28;20056;-57
2021/11/29 10:23:02;;;;;;;1.63;1.02;;;23.70;46.80;;;;;;5020331;28;20029;-58
2021/11/29 10:25:28;;;;;;;1.30;0.88;;;23.60;46.50;;;;;;5024303;28;20025;-58
2021/11/29 10:27:54;;;;;;;1.83;0.90;;;23.60;46.50;;;;;;5023702;28;20033;-59
2021/11/29 10:30:24;;;;;;;1.38;1.00;;;23.60;46.50;;;;;;5021024;28;20049;-59
2021/11/29 10:32:51;;;;;;;1.40;1.00;;;23.60;46.60;;;;;;5023399;28;20026;-59
2021/11/29 10:35:42;;;;;;;1.48;0.98;;;23.50;46.50;;;;;;5020625;28;20029;-60
2021/11/29 10:38:08;;;;;;;1.10;0.90;;;23.50;46.50;;;;;;5022805;28;20064;-58
2021/11/29 10:40:34;;;;;;;1.55;1.00;;;23.50;46.60;;;;;;5017647;28;20124;-58
2021/11/29 10:43:06;;;;;;;1.75;0.90;;;23.40;46.60;;;;;;5029438;28;20964;-59
2021/11/29 10:45:39;;;;;;;1.42;0.80;;;23.40;46.60;;;;;;5025414;28;20101;-57
2021/11/29 10:48:23;;;;;;;1.08;0.85;;;23.40;46.70;;;;;;5028044;28;20488;-60
2021/11/29 10:51:10;;;;;;;1.10;0.80;;;23.40;46.60;;;;;;5022117;28;20033;-58
2021/11/29 10:53:56;;;;;;;1.70;0.90;;;23.40;46.60;;;;;;5025074;28;20021;-58
2021/11/29 10:56:24;;;;;;;1.30;0.80;;;23.40;46.70;;;;;;5023369;28;20116;-57
2021/11/29 10:58:53;;;;;;;1.85;1.00;;;23.40;46.80;;;;;;5024591;28;20021;-58
2021/11/29 11:01:34;;;;;;;1.25;0.80;;;23.30;46.80;;;;;;5023601;28;20451;-56
2021/11/29 11:03:59;;;;;;;1.50;0.90;;;23.30;46.80;;;;;;5018837;28;20086;-59
2021/11/29 11:06:38;;;;;;;1.02;0.85;;;23.30;46.80;;;;;;5024663;28;20354;-60
2021/11/29 11:09:32;;;;;;;1.30;0.80;;;23.30;47.00;;;;;;5023602;28;20040;-57
2021/11/29 11:12:03;;;;;;;1.83;1.00;;;23.30;47.00;;;;;;5024241;28;20651;-58
2021/11/29 11:14:47;;;;;;;1.98;1.00;;;23.20;47.00;;;;;;5020507;28;20034;-59
2021/11/29 11:17:13;;;;;;;1.67;0.90;;;23.30;47.00;;;;;;5019021;28;20029;-57
2021/11/29 11:19:45;;;;;;;1.30;0.90;;;23.20;47.00;;;;;;5020159;28;20109;-57
2021/11/29 11:22:32;;;;;;;1.20;0.88;;;23.30;47.20;;;;;;5022621;28;20022;-60
2021/11/29 11:25:11;;;;;;;1.70;0.90;;;23.30;47.10;;;;;;5017736;28;20040;-60
2021/11/29 11:27:58;;;;;;;1.55;0.90;;;23.20;47.20;;;;;;5020230;28;20037;-58
2021/11/29 11:30:26;;;;;;;1.42;0.82;;;23.20;47.40;;;;;;5019515;28;20057;-60
2021/11/29 11:32:56;;;;;;;1.70;1.10;;;23.20;47.30;;;;;;5019817;28;20030;-59
2021/11/29 11:35:27;;;;;;;1.90;1.08;;;23.20;47.10;;;;;;5022976;28;20124;-60
2021/11/29 11:37:57;;;;;;;2.45;1.00;;;23.10;47.10;;;;;;5020548;28;20152;-58
2021/11/29 11:40:29;;;;;;;1.92;1.10;;;23.10;47.10;;;;;;5014352;28;20060;-58
2021/11/29 11:42:55;;;;;;;1.83;0.90;;;23.10;47.10;;;;;;5022859;28;20657;-60
2021/11/29 11:45:24;;;;;;;3.35;1.20;;;23.10;47.20;;;;;;5022828;28;20028;-54
2021/11/29 11:47:52;;;;;;;3.13;1.30;;;23.10;47.20;;;;;;5024856;28;20038;-57
2021/11/29 11:50:21;;;;;;;3.70;1.50;;;23.10;47.20;;;;;;5022856;28;20048;-60
2021/11/29 11:52:47;;;;;;;3.20;1.50;;;23.10;47.30;;;;;;5023442;28;20113;-59
2021/11/29 11:55:16;;;;;;;3.60;1.10;;;23.10;47.50;;;;;;5016723;28;20140;-58
2021/11/29 11:57:42;;;;;;;2.72;1.10;;;23.00;47.70;;;;;;5023888;28;20040;-59
2021/11/29 12:00:27;;;;;;;2.00;1.00;;;23.10;47.90;;;;;;5018307;28;20044;-57
2021/11/29 12:03:19;;;;;;;1.98;1.00;;;23.10;48.20;;;;;;5021994;28;20049;-58
2021/11/29 12:05:51;;;;;;;2.75;1.20;;;23.10;48.40;;;;;;5020947;28;20113;-59
2021/11/29 12:08:35;;;;;;;2.90;0.95;;;23.20;48.70;;;;;;5021146;28;20021;-56
2021/11/29 12:11:05;;;;;;;2.35;1.02;;;23.20;49.10;;;;;;5022063;28;20453;-60
2021/11/29 12:13:44;;;;;;;2.83;1.15;;;23.20;49.30;;;;;;5021026;28;20030;-54
2021/11/29 12:16:11;;;;;;;2.40;1.08;;;23.20;49.40;;;;;;5021193;28;20037;-56
2021/11/29 12:18:40;;;;;;;2.25;1.00;;;23.20;49.40;;;;;;5021715;28;20443;-55
2021/11/29 12:21:26;;;;;;;3.88;1.33;;;23.20;49.60;;;;;;5022799;28;20043;-58
2021/11/29 12:23:52;;;;;;;1.85;1.00;;;23.30;50.00;;;;;;5021371;28;20041;-59
2021/11/29 12:26:45;;;;;;;3.10;1.00;;;23.30;50.20;;;;;;5020302;28;20069;-57
2021/11/29 12:29:20;;;;;;;1.95;0.90;;;23.30;50.30;;;;;;5021166;28;20033;-58
2021/11/29 12:32:01;;;;;;;2.20;0.85;;;23.40;50.40;;;;;;5023161;28;20029;-58
2021/11/29 12:34:51;;;;;;;3.55;1.00;;;23.30;50.50;;;;;;5020179;28;20022;-59
2021/11/29 12:37:31;;;;;;;2.22;1.00;;;23.40;51.10;;;;;;5019220;28;20084;-59
2021/11/29 12:39:58;;;;;;;1.80;1.10;;;23.40;51.00;;;;;;5017457;28;20102;-59
2021/11/29 12:42:26;;;;;;;2.20;0.90;;;23.40;51.10;;;;;;5019433;28;20026;-58
2021/11/29 12:44:52;;;;;;;2.25;1.02;;;23.40;51.10;;;;;;5020789;28;20021;-59
2021/11/29 12:47:31;;;;;;;1.23;0.73;;;23.50;51.30;;;;;;5019057;28;20090;-56
2021/11/29 12:50:03;;;;;;;1.50;0.80;;;23.50;51.60;;;;;;5020251;28;20083;-57
2021/11/29 12:52:46;;;;;;;1.55;0.80;;;23.50;51.70;;;;;;5018732;28;20110;-59
2021/11/29 12:55:20;;;;;;;1.25;0.80;;;23.50;51.60;;;;;;5018247;28;20034;-59
2021/11/29 12:58:09;;;;;;;3.05;1.20;;;23.50;51.90;;;;;;5020165;28;20159;-58
2021/11/29 13:00:38;;;;;;;1.77;0.90;;;23.50;51.80;;;;;;5017333;28;20142;-58
2021/11/29 13:03:05;;;;;;;1.42;0.75;;;23.60;52.10;;;;;;5018672;28;20858;-58
2021/11/29 13:05:38;;;;;;;1.33;0.80;;;23.60;52.10;;;;;;5021033;28;20080;-57
2021/11/29 13:08:28;;;;;;;2.03;0.90;;;23.60;52.00;;;;;;5022259;28;20378;-59
2021/11/29 13:11:00;;;;;;;1.45;0.88;;;23.60;52.00;;;;;;5018040;28;20036;-58